createdAt,value
2023-04-09T00:00:23.922Z,668.00
2023-04-09T00:01:24.017Z,689.00
2023-04-09T00:02:24.048Z,680.00
2023-04-09T00:03:25.392Z,683.00
2023-04-09T00:04:24.182Z,664.00
2023-04-09T00:05:24.185Z,679.00
2023-04-09T00:06:24.252Z,682.00
2023-04-09T00:07:24.310Z,671.00
2023-04-09T00:08:24.367Z,674.00
2023-04-09T00:09:24.445Z,679.00
2023-04-09T00:10:24.465Z,668.00
2023-04-09T00:11:24.556Z,666.00
2023-04-09T00:12:24.594Z,668.00
2023-04-09T00:13:35.478Z,687.00
2023-04-09T00:14:25.658Z,680.00
2023-04-09T00:15:31.349Z,686.00
2023-04-09T00:16:25.687Z,688.00
2023-04-09T00:17:24.786Z,680.00
2023-04-09T00:18:24.620Z,679.00
2023-04-09T00:19:24.648Z,672.00
2023-04-09T00:20:24.621Z,678.00
2023-04-09T00:21:24.615Z,685.00
2023-04-09T00:22:24.619Z,693.00
2023-04-09T00:23:24.566Z,695.00
2023-04-09T00:24:24.598Z,696.00
2023-04-09T00:25:24.641Z,679.00
2023-04-09T00:26:24.712Z,693.00
2023-04-09T00:27:24.771Z,688.00
2023-04-09T00:28:24.815Z,692.00
2023-04-09T00:29:24.865Z,689.00
2023-04-09T00:30:24.934Z,699.00
2023-04-09T00:31:25.020Z,687.00
2023-04-09T00:32:25.076Z,690.00
2023-04-09T00:33:25.126Z,706.00
2023-04-09T00:34:25.154Z,683.00
2023-04-09T00:35:25.232Z,688.00
2023-04-09T00:36:27.009Z,680.00
2023-04-09T00:37:25.356Z,691.00
2023-04-09T00:38:25.418Z,700.00
2023-04-09T00:39:25.497Z,706.00
2023-04-09T00:40:25.505Z,690.00
2023-04-09T00:41:25.591Z,687.00
2023-04-09T00:42:25.624Z,686.00
2023-04-09T00:43:25.677Z,692.00
2023-04-09T00:44:25.764Z,693.00
2023-04-09T00:45:25.905Z,690.00
2023-04-09T00:46:25.877Z,690.00
2023-04-09T00:47:25.921Z,693.00
2023-04-09T00:48:26.001Z,691.00
2023-04-09T00:49:26.038Z,705.00
2023-04-09T00:50:26.083Z,714.00
2023-04-09T00:51:26.110Z,680.00
2023-04-09T00:52:26.172Z,705.00
2023-04-09T00:53:26.218Z,700.00
2023-04-09T00:54:26.307Z,702.00
2023-04-09T00:55:26.340Z,708.00
2023-04-09T00:56:26.390Z,715.00
2023-04-09T00:57:26.456Z,706.00
2023-04-09T00:58:26.505Z,709.00
2023-04-09T00:59:26.542Z,691.00
2023-04-09T01:00:26.596Z,695.00
2023-04-09T01:01:26.669Z,681.00
2023-04-09T01:02:26.806Z,687.00
2023-04-09T01:03:26.850Z,689.00
2023-04-09T01:04:26.804Z,701.00
2023-04-09T01:05:26.872Z,680.00
2023-04-09T01:06:26.924Z,684.00
2023-04-09T01:07:26.991Z,682.00
2023-04-09T01:08:27.005Z,692.00
2023-04-09T01:09:27.086Z,698.00
2023-04-09T01:10:27.124Z,679.00
2023-04-09T01:11:27.169Z,676.00
2023-04-09T01:12:27.226Z,699.00
2023-04-09T01:13:27.244Z,695.00
2023-04-09T01:14:27.264Z,685.00
2023-04-09T01:15:27.308Z,676.00
2023-04-09T01:16:27.475Z,681.00
2023-04-09T01:17:27.494Z,681.00
2023-04-09T01:18:27.487Z,690.00
2023-04-09T01:19:27.555Z,684.00
2023-04-09T01:20:27.612Z,688.00
2023-04-09T01:21:27.632Z,706.00
2023-04-09T01:22:27.721Z,696.00
2023-04-09T01:23:27.780Z,686.00
2023-04-09T01:24:27.853Z,675.00
2023-04-09T01:25:27.877Z,689.00
2023-04-09T01:26:27.896Z,680.00
2023-04-09T01:27:27.964Z,673.00
2023-04-09T01:28:28.049Z,664.00
2023-04-09T01:29:28.111Z,690.00
2023-04-09T01:30:28.189Z,693.00
2023-04-09T01:31:28.227Z,674.00
2023-04-09T01:32:28.263Z,695.00
2023-04-09T01:33:28.319Z,687.00
2023-04-09T01:34:28.352Z,679.00
2023-04-09T01:35:28.378Z,695.00
2023-04-09T01:36:28.477Z,688.00
2023-04-09T01:37:28.503Z,690.00
2023-04-09T01:38:28.531Z,666.00
2023-04-09T01:39:28.576Z,671.00
2023-04-09T01:40:28.665Z,681.00
2023-04-09T01:41:28.693Z,678.00
2023-04-09T01:42:28.791Z,673.00
2023-04-09T01:43:28.807Z,672.00
2023-04-09T01:44:28.857Z,679.00
2023-04-09T01:45:28.893Z,680.00
2023-04-09T01:46:29.037Z,682.00
2023-04-09T01:47:29.003Z,669.00
2023-04-09T01:48:29.043Z,696.00
2023-04-09T01:49:29.107Z,674.00
2023-04-09T01:50:29.137Z,691.00
2023-04-09T01:51:29.176Z,681.00
2023-04-09T01:52:29.236Z,684.00
2023-04-09T01:53:29.329Z,675.00
2023-04-09T01:54:29.362Z,675.00
2023-04-09T01:55:29.375Z,687.00
2023-04-09T01:56:29.454Z,691.00
2023-04-09T01:57:29.533Z,674.00
2023-04-09T01:58:29.571Z,690.00
2023-04-09T01:59:29.627Z,680.00
2023-04-09T02:00:29.657Z,693.00
2023-04-09T02:01:29.790Z,670.00
2023-04-09T02:02:29.852Z,700.00
2023-04-09T02:03:29.949Z,688.00
2023-04-09T02:04:29.926Z,688.00
2023-04-09T02:05:29.954Z,683.00
2023-04-09T02:06:29.990Z,682.00
2023-04-09T02:07:30.063Z,675.00
2023-04-09T02:08:30.126Z,679.00
2023-04-09T02:09:30.185Z,667.00
2023-04-09T02:10:30.192Z,694.00
2023-04-09T02:11:30.196Z,665.00
2023-04-09T02:12:30.238Z,678.00
2023-04-09T02:13:30.274Z,692.00
2023-04-09T02:14:30.342Z,682.00
2023-04-09T02:15:30.383Z,669.00
2023-04-09T02:16:30.410Z,681.00
2023-04-09T02:17:30.470Z,662.00
2023-04-09T02:18:30.512Z,671.00
2023-04-09T02:19:30.582Z,691.00
2023-04-09T02:20:30.565Z,663.00
2023-04-09T02:21:30.618Z,680.00
2023-04-09T02:22:30.626Z,659.00
2023-04-09T02:23:30.639Z,668.00
2023-04-09T02:24:30.707Z,661.00
2023-04-09T02:25:30.739Z,662.00
2023-04-09T02:26:30.776Z,662.00
2023-04-09T02:27:30.766Z,660.00
2023-04-09T02:28:30.833Z,663.00
2023-04-09T02:29:30.824Z,665.00
2023-04-09T02:30:30.826Z,658.00
2023-04-09T02:31:30.980Z,665.00
2023-04-09T02:32:30.935Z,663.00
2023-04-09T02:33:30.944Z,661.00
2023-04-09T02:34:30.949Z,658.00
2023-04-09T02:35:31.073Z,666.00
2023-04-09T02:36:31.090Z,661.00
2023-04-09T02:37:31.095Z,658.00
2023-04-09T02:38:31.091Z,656.00
2023-04-09T02:39:31.126Z,659.00
2023-04-09T02:40:31.145Z,653.00
2023-04-09T02:41:31.154Z,655.00
2023-04-09T02:42:31.201Z,660.00
2023-04-09T02:43:31.221Z,653.00
2023-04-09T02:44:31.287Z,655.00
2023-04-09T02:45:31.297Z,660.00
2023-04-09T02:46:31.407Z,659.00
2023-04-09T02:47:31.375Z,658.00
2023-04-09T02:48:31.410Z,657.00
2023-04-09T02:49:31.422Z,653.00
2023-04-09T02:50:31.468Z,650.00
2023-04-09T02:51:31.502Z,650.00
2023-04-09T02:52:31.522Z,649.00
2023-04-09T02:53:31.567Z,653.00
2023-04-09T02:54:31.622Z,649.00
2023-04-09T02:55:31.645Z,652.00
2023-04-09T02:56:31.654Z,652.00
2023-04-09T02:57:33.587Z,649.00
2023-04-09T02:58:31.789Z,644.00
2023-04-09T02:59:31.798Z,654.00
2023-04-09T03:00:31.858Z,653.00
2023-04-09T03:01:31.932Z,648.00
2023-04-09T03:02:32.092Z,649.00
2023-04-09T03:03:32.028Z,651.00
2023-04-09T03:04:32.096Z,649.00
2023-04-09T03:05:32.106Z,642.00
2023-04-09T03:06:32.160Z,653.00
2023-04-09T03:07:32.207Z,648.00
2023-04-09T03:08:32.273Z,647.00
2023-04-09T03:09:32.352Z,653.00
2023-04-09T03:10:32.402Z,653.00
2023-04-09T03:11:32.493Z,651.00
2023-04-09T03:12:32.559Z,648.00
2023-04-09T03:13:32.562Z,650.00
2023-04-09T03:14:34.227Z,647.00
2023-04-09T03:15:32.810Z,652.00
2023-04-09T03:16:32.834Z,650.00
2023-04-09T03:17:32.941Z,647.00
2023-04-09T03:18:32.937Z,656.00
2023-04-09T03:19:33.016Z,654.00
2023-04-09T03:20:33.013Z,658.00
2023-04-09T03:21:33.047Z,649.00
2023-04-09T03:22:33.115Z,650.00
2023-04-09T03:23:33.153Z,657.00
2023-04-09T03:24:33.224Z,658.00
2023-04-09T03:25:33.280Z,655.00
2023-04-09T03:26:33.301Z,653.00
2023-04-09T03:27:33.381Z,656.00
2023-04-09T03:28:33.413Z,655.00
2023-04-09T03:29:33.442Z,659.00
2023-04-09T03:30:33.498Z,654.00
2023-04-09T03:31:33.672Z,664.00
2023-04-09T03:32:33.652Z,655.00
2023-04-09T03:33:33.676Z,658.00
2023-04-09T03:34:33.751Z,656.00
2023-04-09T03:35:33.786Z,656.00
2023-04-09T03:36:33.816Z,657.00
2023-04-09T03:37:33.854Z,654.00
2023-04-09T03:38:33.952Z,657.00
2023-04-09T03:39:34.034Z,663.00
2023-04-09T03:40:34.068Z,663.00
2023-04-09T03:41:34.140Z,653.00
2023-04-09T03:42:34.197Z,660.00
2023-04-09T03:43:34.266Z,658.00
2023-04-09T03:44:34.398Z,655.00
2023-04-09T03:45:34.351Z,655.00
2023-04-09T03:46:34.478Z,663.00
2023-04-09T03:47:34.506Z,658.00
2023-04-09T03:48:34.560Z,666.00
2023-04-09T03:49:34.636Z,662.00
2023-04-09T03:50:34.667Z,656.00
2023-04-09T03:51:34.720Z,655.00
2023-04-09T03:52:34.759Z,657.00
2023-04-09T03:53:34.808Z,651.00
2023-04-09T03:54:34.870Z,650.00
2023-04-09T03:55:34.879Z,656.00
2023-04-09T03:56:34.929Z,647.00
2023-04-09T03:57:35.053Z,655.00
2023-04-09T03:58:35.052Z,648.00
2023-04-09T03:59:35.108Z,649.00
2023-04-09T04:00:35.137Z,652.00
2023-04-09T04:01:35.325Z,649.00
2023-04-09T04:02:35.308Z,655.00
2023-04-09T04:03:35.488Z,654.00
2023-04-09T04:04:35.319Z,652.00
2023-04-09T04:05:35.346Z,654.00
2023-04-09T04:06:35.403Z,647.00
2023-04-09T04:07:35.455Z,659.00
2023-04-09T04:08:35.499Z,651.00
2023-04-09T04:09:35.536Z,653.00
2023-04-09T04:10:35.596Z,653.00
2023-04-09T04:11:35.644Z,647.00
2023-04-09T04:12:35.675Z,653.00
2023-04-09T04:13:35.752Z,656.00
2023-04-09T04:14:35.804Z,658.00
2023-04-09T04:15:35.834Z,654.00
2023-04-09T04:16:35.904Z,655.00
2023-04-09T04:17:35.932Z,653.00
2023-04-09T04:18:35.963Z,655.00
2023-04-09T04:19:36.020Z,658.00
2023-04-09T04:20:36.032Z,653.00
2023-04-09T04:21:36.075Z,650.00
2023-04-09T04:22:36.119Z,653.00
2023-04-09T04:23:36.148Z,645.00
2023-04-09T04:24:36.189Z,654.00
2023-04-09T04:25:36.246Z,655.00
2023-04-09T04:26:36.279Z,656.00
2023-04-09T04:27:36.326Z,653.00
2023-04-09T04:28:36.388Z,659.00
2023-04-09T04:29:36.411Z,656.00
2023-04-09T04:30:36.472Z,657.00
2023-04-09T04:31:36.533Z,656.00
2023-04-09T04:32:36.590Z,650.00
2023-04-09T04:33:36.595Z,653.00
2023-04-09T04:34:36.697Z,648.00
2023-04-09T04:35:36.716Z,651.00
2023-04-09T04:36:36.744Z,648.00
2023-04-09T04:37:36.794Z,652.00
2023-04-09T04:38:36.842Z,651.00
2023-04-09T04:39:36.888Z,655.00
2023-04-09T04:40:36.924Z,656.00
2023-04-09T04:41:36.925Z,663.00
2023-04-09T04:42:36.959Z,655.00
2023-04-09T04:43:36.973Z,650.00
2023-04-09T04:44:37.078Z,655.00
2023-04-09T04:45:37.129Z,654.00
2023-04-09T04:46:37.175Z,658.00
2023-04-09T04:47:37.230Z,654.00
2023-04-09T04:48:37.302Z,654.00
2023-04-09T04:49:37.355Z,655.00
2023-04-09T04:50:37.417Z,659.00
2023-04-09T04:51:37.448Z,651.00
2023-04-09T04:52:37.489Z,654.00
2023-04-09T04:53:37.519Z,652.00
2023-04-09T04:54:37.599Z,653.00
2023-04-09T04:55:37.594Z,654.00
2023-04-09T04:56:37.684Z,656.00
2023-04-09T04:57:37.737Z,656.00
2023-04-09T04:58:37.790Z,656.00
2023-04-09T04:59:37.825Z,652.00
2023-04-09T05:00:37.864Z,654.00
2023-04-09T05:01:38.163Z,656.00
2023-04-09T05:02:38.203Z,652.00
2023-04-09T05:03:38.164Z,654.00
2023-04-09T05:04:38.141Z,651.00
2023-04-09T05:05:38.216Z,656.00
2023-04-09T05:06:38.280Z,656.00
2023-04-09T05:07:38.332Z,651.00
2023-04-09T05:08:38.402Z,654.00
2023-04-09T05:09:38.446Z,658.00
2023-04-09T05:10:38.543Z,655.00
2023-04-09T05:11:38.594Z,661.00
2023-04-09T05:12:38.637Z,655.00
2023-04-09T05:13:38.708Z,656.00
2023-04-09T05:14:38.754Z,658.00
2023-04-09T05:15:38.819Z,656.00
2023-04-09T05:16:38.893Z,655.00
2023-04-09T05:17:38.961Z,656.00
2023-04-09T05:18:38.997Z,656.00
2023-04-09T05:19:39.058Z,651.00
2023-04-09T05:20:39.087Z,653.00
2023-04-09T05:21:39.157Z,658.00
2023-04-09T05:22:39.193Z,656.00
2023-04-09T05:23:39.293Z,662.00
2023-04-09T05:24:39.317Z,663.00
2023-04-09T05:25:39.396Z,655.00
2023-04-09T05:26:39.445Z,660.00
2023-04-09T05:27:39.519Z,657.00
2023-04-09T05:28:39.530Z,660.00
2023-04-09T05:29:39.612Z,656.00
2023-04-09T05:30:39.693Z,653.00
2023-04-09T05:31:39.744Z,653.00
2023-04-09T05:32:39.794Z,660.00
2023-04-09T05:33:39.849Z,661.00
2023-04-09T05:34:39.865Z,655.00
2023-04-09T05:35:39.955Z,663.00
2023-04-09T05:36:39.984Z,656.00
2023-04-09T05:37:40.055Z,657.00
2023-04-09T05:38:40.114Z,656.00
2023-04-09T05:39:40.171Z,659.00
2023-04-09T05:40:40.233Z,651.00
2023-04-09T05:41:40.280Z,654.00
2023-04-09T05:42:40.337Z,663.00
2023-04-09T05:43:40.404Z,664.00
2023-04-09T05:44:40.466Z,653.00
2023-04-09T05:45:40.513Z,654.00
2023-04-09T05:46:40.579Z,652.00
2023-04-09T05:47:40.698Z,653.00
2023-04-09T05:48:40.706Z,654.00
2023-04-09T05:49:40.750Z,656.00
2023-04-09T05:50:53.389Z,657.00
2023-04-09T05:51:41.827Z,657.00
2023-04-09T05:52:40.770Z,657.00
2023-04-09T05:53:40.794Z,658.00
2023-04-09T05:54:40.784Z,660.00
2023-04-09T05:55:40.812Z,657.00
2023-04-09T05:56:40.789Z,658.00
2023-04-09T05:57:40.770Z,660.00
2023-04-09T05:58:40.826Z,664.00
2023-04-09T05:59:40.863Z,655.00
2023-04-09T06:00:40.926Z,656.00
2023-04-09T06:01:41.000Z,667.00
2023-04-09T06:02:41.118Z,661.00
2023-04-09T06:03:41.167Z,656.00
2023-04-09T06:04:41.223Z,657.00
2023-04-09T06:05:41.209Z,663.00
2023-04-09T06:06:41.232Z,658.00
2023-04-09T06:07:41.302Z,664.00
2023-04-09T06:08:41.333Z,663.00
2023-04-09T06:09:41.362Z,663.00
2023-04-09T06:10:41.641Z,661.00
2023-04-09T06:11:41.437Z,661.00
2023-04-09T06:12:41.504Z,673.00
2023-04-09T06:13:41.561Z,659.00
2023-04-09T06:14:41.552Z,672.00
2023-04-09T06:15:41.628Z,666.00
2023-04-09T06:16:41.638Z,673.00
2023-04-09T06:17:41.848Z,675.00
2023-04-09T06:18:41.755Z,662.00
2023-04-09T06:19:41.785Z,664.00
2023-04-09T06:20:41.835Z,664.00
2023-04-09T06:21:41.910Z,663.00
2023-04-09T06:22:41.963Z,665.00
2023-04-09T06:23:41.995Z,662.00
2023-04-09T06:24:42.055Z,660.00
2023-04-09T06:25:42.083Z,661.00
2023-04-09T06:26:42.135Z,664.00
2023-04-09T06:27:42.267Z,665.00
2023-04-09T06:28:42.238Z,660.00
2023-04-09T06:29:42.262Z,658.00
2023-04-09T06:30:42.294Z,657.00
2023-04-09T06:31:42.388Z,665.00
2023-04-09T06:32:53.246Z,660.00
2023-04-09T06:33:43.411Z,660.00
2023-04-09T06:34:42.377Z,660.00
2023-04-09T06:35:42.367Z,661.00
2023-04-09T06:36:42.373Z,657.00
2023-04-09T06:37:42.346Z,664.00
2023-04-09T06:38:42.323Z,660.00
2023-04-09T06:39:47.586Z,658.00
2023-04-09T06:40:43.349Z,658.00
2023-04-09T06:41:42.312Z,658.00
2023-04-09T06:42:42.348Z,660.00
2023-04-09T06:43:42.315Z,661.00
2023-04-09T06:44:42.316Z,661.00
2023-04-09T06:45:42.273Z,654.00
2023-04-09T06:46:42.315Z,659.00
2023-04-09T06:47:42.309Z,657.00
2023-04-09T06:48:42.260Z,653.00
2023-04-09T06:49:42.250Z,655.00
2023-04-09T06:50:42.240Z,661.00
2023-04-09T06:51:42.240Z,656.00
2023-04-09T06:52:42.247Z,661.00
2023-04-09T06:53:42.390Z,660.00
2023-04-09T06:54:42.285Z,655.00
2023-04-09T06:55:42.314Z,658.00
2023-04-09T06:56:42.354Z,657.00
2023-04-09T06:57:42.403Z,662.00
2023-04-09T06:58:42.442Z,662.00
2023-04-09T06:59:42.469Z,658.00
2023-04-09T07:00:42.512Z,658.00
2023-04-09T07:01:42.670Z,661.00
2023-04-09T07:02:42.843Z,657.00
2023-04-09T07:03:42.738Z,657.00
2023-04-09T07:04:42.782Z,665.00
2023-04-09T07:05:42.744Z,656.00
2023-04-09T07:06:42.779Z,657.00
2023-04-09T07:07:42.861Z,658.00
2023-04-09T07:08:42.872Z,659.00
2023-04-09T07:09:42.954Z,661.00
2023-04-09T07:10:43.014Z,663.00
2023-04-09T07:11:43.018Z,659.00
2023-04-09T07:12:43.074Z,658.00
2023-04-09T07:13:43.106Z,657.00
2023-04-09T07:14:43.157Z,662.00
2023-04-09T07:15:43.357Z,662.00
2023-04-09T07:16:43.278Z,656.00
2023-04-09T07:17:43.334Z,654.00
2023-04-09T07:18:43.344Z,658.00
2023-04-09T07:19:43.421Z,656.00
2023-04-09T07:20:43.426Z,659.00
2023-04-09T07:21:43.475Z,661.00
2023-04-09T07:22:43.547Z,657.00
2023-04-09T07:23:43.603Z,659.00
2023-04-09T07:24:43.782Z,656.00
2023-04-09T07:25:43.695Z,661.00
2023-04-09T07:26:43.740Z,654.00
2023-04-09T07:27:43.861Z,651.00
2023-04-09T07:28:43.892Z,657.00
2023-04-09T07:29:43.938Z,655.00
2023-04-09T07:30:43.963Z,655.00
2023-04-09T07:31:44.111Z,649.00
2023-04-09T07:32:44.062Z,658.00
2023-04-09T07:33:44.132Z,656.00
2023-04-09T07:34:44.228Z,647.00
2023-04-09T07:35:44.329Z,652.00
2023-04-09T07:36:44.350Z,652.00
2023-04-09T07:37:44.398Z,655.00
2023-04-09T07:38:44.434Z,655.00
2023-04-09T07:39:44.777Z,653.00
2023-04-09T07:40:44.583Z,659.00
2023-04-09T07:41:44.645Z,660.00
2023-04-09T07:42:44.662Z,654.00
2023-04-09T07:43:44.739Z,654.00
2023-04-09T07:44:44.781Z,657.00
2023-04-09T07:45:44.832Z,650.00
2023-04-09T07:46:44.939Z,649.00
2023-04-09T07:47:44.972Z,655.00
2023-04-09T07:48:46.176Z,652.00
2023-04-09T07:49:45.063Z,651.00
2023-04-09T07:50:45.115Z,654.00
2023-04-09T07:51:45.180Z,652.00
2023-04-09T07:52:45.184Z,654.00
2023-04-09T07:53:45.253Z,651.00
2023-04-09T07:54:45.324Z,652.00
2023-04-09T07:55:45.316Z,648.00
2023-04-09T07:56:45.373Z,653.00
2023-04-09T07:57:45.457Z,649.00
2023-04-09T07:58:45.476Z,653.00
2023-04-09T07:59:45.545Z,647.00
2023-04-09T08:00:45.616Z,651.00
2023-04-09T08:01:45.721Z,650.00
2023-04-09T08:02:45.916Z,645.00
2023-04-09T08:03:46.056Z,651.00
2023-04-09T08:04:45.989Z,645.00
2023-04-09T08:05:45.893Z,645.00
2023-04-09T08:06:45.971Z,641.00
2023-04-09T08:07:46.011Z,642.00
2023-04-09T08:08:46.093Z,646.00
2023-04-09T08:09:46.171Z,642.00
2023-04-09T08:10:46.222Z,641.00
2023-04-09T08:11:46.295Z,642.00
2023-04-09T08:12:46.283Z,641.00
2023-04-09T08:13:46.392Z,635.00
2023-04-09T08:14:46.434Z,639.00
2023-04-09T08:15:46.501Z,637.00
2023-04-09T08:16:46.676Z,633.00
2023-04-09T08:17:46.582Z,633.00
2023-04-09T08:18:46.634Z,637.00
2023-04-09T08:19:46.650Z,634.00
2023-04-09T08:20:46.697Z,631.00
2023-04-09T08:21:46.744Z,625.00
2023-04-09T08:22:46.826Z,631.00
2023-04-09T08:23:46.873Z,624.00
2023-04-09T08:24:46.957Z,630.00
2023-04-09T08:25:46.968Z,623.00
2023-04-09T08:26:47.054Z,623.00
2023-04-09T08:27:47.106Z,627.00
2023-04-09T08:28:47.147Z,621.00
2023-04-09T08:29:47.247Z,622.00
2023-04-09T08:30:47.269Z,620.00
2023-04-09T08:31:47.450Z,625.00
2023-04-09T08:32:47.442Z,612.00
2023-04-09T08:33:47.425Z,614.00
2023-04-09T08:34:47.513Z,615.00
2023-04-09T08:35:47.591Z,614.00
2023-04-09T08:36:47.739Z,616.00
2023-04-09T08:37:47.740Z,612.00
2023-04-09T08:38:47.761Z,610.00
2023-04-09T08:39:47.848Z,609.00
2023-04-09T08:40:47.842Z,606.00
2023-04-09T08:41:47.936Z,608.00
2023-04-09T08:42:47.988Z,608.00
2023-04-09T08:44:49.039Z,605.00
2023-04-09T08:45:48.078Z,605.00
2023-04-09T08:46:47.991Z,607.00
2023-04-09T08:47:48.127Z,609.00
2023-04-09T08:48:47.995Z,606.00
2023-04-09T08:49:48.014Z,601.00
2023-04-09T08:50:48.006Z,608.00
2023-04-09T08:51:48.018Z,604.00
2023-04-09T08:52:48.125Z,606.00
2023-04-09T08:53:48.206Z,614.00
2023-04-09T08:54:48.273Z,605.00
2023-04-09T08:55:48.261Z,609.00
2023-04-09T08:56:48.345Z,602.00
2023-04-09T08:57:48.398Z,605.00
2023-04-09T08:58:48.450Z,606.00
2023-04-09T08:59:48.533Z,604.00
2023-04-09T09:00:48.597Z,606.00
2023-04-09T09:01:48.694Z,598.00
2023-04-09T09:02:48.841Z,593.00
2023-04-09T09:03:48.788Z,591.00
2023-04-09T09:04:48.927Z,606.00
2023-04-09T09:05:48.849Z,597.00
2023-04-09T09:06:48.935Z,594.00
2023-04-09T09:07:49.037Z,601.00
2023-04-09T09:08:49.025Z,596.00
2023-04-09T09:09:49.131Z,594.00
2023-04-09T09:10:49.161Z,600.00
2023-04-09T09:11:49.228Z,589.00
2023-04-09T09:12:49.295Z,586.00
2023-04-09T09:13:49.355Z,587.00
2023-04-09T09:14:49.394Z,587.00
2023-04-09T09:15:49.472Z,587.00
2023-04-09T09:16:49.539Z,582.00
2023-04-09T09:17:49.629Z,585.00
2023-04-09T09:18:50.594Z,586.00
2023-04-09T09:19:49.727Z,587.00
2023-04-09T09:20:49.799Z,585.00
2023-04-09T09:21:49.844Z,584.00
2023-04-09T09:22:55.108Z,590.00
2023-04-09T09:23:50.924Z,590.00
2023-04-09T09:24:50.504Z,590.00
2023-04-09T09:25:49.869Z,586.00
2023-04-09T09:26:49.867Z,591.00
2023-04-09T09:27:49.863Z,596.00
2023-04-09T09:28:49.930Z,601.00
2023-04-09T09:29:49.873Z,610.00
2023-04-09T09:30:49.914Z,614.00
2023-04-09T09:31:49.931Z,619.00
2023-04-09T09:32:50.005Z,621.00
2023-04-09T09:33:50.052Z,627.00
2023-04-09T09:34:50.107Z,622.00
2023-04-09T09:35:50.224Z,615.00
2023-04-09T09:36:50.213Z,604.00
2023-04-09T09:37:50.624Z,589.00
2023-04-09T09:38:50.580Z,583.00
2023-04-09T09:39:50.360Z,580.00
2023-04-09T09:40:50.411Z,581.00
2023-04-09T09:41:50.466Z,605.00
2023-04-09T09:42:50.529Z,616.00
2023-04-09T09:43:50.577Z,609.00
2023-04-09T09:44:50.659Z,617.00
2023-04-09T09:45:50.704Z,612.00
2023-04-09T09:46:50.738Z,614.00
2023-04-09T09:47:50.799Z,613.00
2023-04-09T09:48:51.103Z,607.00
2023-04-09T09:49:50.892Z,601.00
2023-04-09T09:50:50.940Z,596.00
2023-04-09T09:51:51.022Z,587.00
2023-04-09T09:52:51.029Z,584.00
2023-04-09T09:53:51.116Z,581.00
2023-04-09T09:54:51.165Z,575.00
2023-04-09T09:55:51.194Z,578.00
2023-04-09T09:56:51.236Z,574.00
2023-04-09T09:57:51.311Z,581.00
2023-04-09T09:58:51.424Z,577.00
2023-04-09T09:59:51.411Z,562.00
2023-04-09T10:00:51.410Z,571.00
2023-04-09T10:01:51.540Z,571.00
2023-04-09T10:02:51.630Z,571.00
2023-04-09T10:03:51.547Z,566.00
2023-04-09T10:04:51.682Z,565.00
2023-04-09T10:05:51.666Z,550.00
2023-04-09T10:06:53.431Z,563.00
2023-04-09T10:07:51.717Z,558.00
2023-04-09T10:08:52.017Z,555.00
2023-04-09T10:09:51.820Z,544.00
2023-04-09T10:10:51.920Z,544.00
2023-04-09T10:11:51.909Z,543.00
2023-04-09T10:12:51.945Z,539.00
2023-04-09T10:13:52.818Z,532.00
2023-04-09T10:14:52.024Z,539.00
2023-04-09T10:15:52.085Z,537.00
2023-04-09T10:16:52.100Z,538.00
2023-04-09T10:17:52.170Z,535.00
2023-04-09T10:18:52.363Z,541.00
2023-04-09T10:19:52.261Z,539.00
2023-04-09T10:20:52.263Z,541.00
2023-04-09T10:21:52.295Z,544.00
2023-04-09T10:22:52.353Z,542.00
2023-04-09T10:23:52.385Z,538.00
2023-04-09T10:24:52.411Z,532.00
2023-04-09T10:25:52.449Z,543.00
2023-04-09T10:26:52.492Z,537.00
2023-04-09T10:27:52.551Z,542.00
2023-04-09T10:28:52.654Z,543.00
2023-04-09T10:29:52.646Z,538.00
2023-04-09T10:30:52.712Z,532.00
2023-04-09T10:31:52.740Z,545.00
2023-04-09T10:32:52.782Z,534.00
2023-04-09T10:33:52.773Z,542.00
2023-04-09T10:34:52.831Z,541.00
2023-04-09T10:35:52.970Z,538.00
2023-04-09T10:36:52.990Z,529.00
2023-04-09T10:37:52.968Z,532.00
2023-04-09T10:38:53.129Z,530.00
2023-04-09T10:39:53.061Z,537.00
2023-04-09T10:40:53.101Z,530.00
2023-04-09T10:41:53.148Z,531.00
2023-04-09T10:42:53.196Z,527.00
2023-04-09T10:43:53.241Z,531.00
2023-04-09T10:44:53.291Z,523.00
2023-04-09T10:45:53.340Z,529.00
2023-04-09T10:46:53.397Z,530.00
2023-04-09T10:47:53.498Z,522.00
2023-04-09T10:48:53.539Z,525.00
2023-04-09T10:49:53.485Z,522.00
2023-04-09T10:50:53.529Z,520.00
2023-04-09T10:51:53.607Z,520.00
2023-04-09T10:52:53.659Z,515.00
2023-04-09T10:53:53.625Z,523.00
2023-04-09T10:54:53.732Z,515.00
2023-04-09T10:55:53.773Z,513.00
2023-04-09T10:56:53.759Z,520.00
2023-04-09T10:57:53.831Z,518.00
2023-04-09T10:58:54.083Z,524.00
2023-04-09T10:59:53.915Z,511.00
2023-04-09T11:00:53.926Z,520.00
2023-04-09T11:01:54.025Z,514.00
2023-04-09T11:02:54.233Z,520.00
2023-04-09T11:03:54.192Z,520.00
2023-04-09T11:04:54.174Z,528.00
2023-04-09T11:05:54.170Z,520.00
2023-04-09T11:06:54.189Z,522.00
2023-04-09T11:07:54.235Z,534.00
2023-04-09T11:08:54.369Z,531.00
2023-04-09T11:09:54.327Z,534.00
2023-04-09T11:10:54.333Z,540.00
2023-04-09T11:11:54.429Z,528.00
2023-04-09T11:12:54.440Z,520.00
2023-04-09T11:13:54.480Z,526.00
2023-04-09T11:14:54.557Z,536.00
2023-04-09T11:15:54.598Z,539.00
2023-04-09T11:16:54.577Z,529.00
2023-04-09T11:17:54.660Z,523.00
2023-04-09T11:18:54.764Z,524.00
2023-04-09T11:19:54.767Z,525.00
2023-04-09T11:20:54.799Z,533.00
2023-04-09T11:21:54.834Z,530.00
2023-04-09T11:22:54.845Z,542.00
2023-04-09T11:23:54.900Z,540.00
2023-04-09T11:24:54.964Z,542.00
2023-04-09T11:25:54.984Z,542.00
2023-04-09T11:26:55.041Z,540.00
2023-04-09T11:27:55.085Z,544.00
2023-04-09T11:28:55.117Z,543.00
2023-04-09T11:29:55.186Z,542.00
2023-04-09T11:30:55.181Z,536.00
2023-04-09T11:31:55.313Z,515.00
2023-04-09T11:32:55.307Z,516.00
2023-04-09T11:33:55.341Z,526.00
2023-04-09T11:34:55.402Z,532.00
2023-04-09T11:35:55.444Z,538.00
2023-04-09T11:36:55.424Z,542.00
2023-04-09T11:37:55.459Z,537.00
2023-04-09T11:38:55.519Z,547.00
2023-04-09T11:39:57.406Z,546.00
2023-04-09T11:40:55.656Z,543.00
2023-04-09T11:41:55.668Z,550.00
2023-04-09T11:42:55.726Z,548.00
2023-04-09T11:43:55.763Z,540.00
2023-04-09T11:44:55.830Z,543.00
2023-04-09T11:45:57.575Z,540.00
2023-04-09T11:46:55.961Z,544.00
2023-04-09T11:47:55.941Z,535.00
2023-04-09T11:48:55.952Z,535.00
2023-04-09T11:49:56.019Z,536.00
2023-04-09T11:50:56.040Z,534.00
2023-04-09T11:51:56.067Z,535.00
2023-04-09T11:52:56.120Z,529.00
2023-04-09T11:53:56.191Z,534.00
2023-04-09T11:54:56.220Z,532.00
2023-04-09T11:55:56.243Z,527.00
2023-04-09T11:56:56.286Z,527.00
2023-04-09T11:57:56.372Z,528.00
2023-04-09T11:58:56.395Z,524.00
2023-04-09T11:59:56.442Z,529.00
2023-04-09T12:00:56.592Z,526.00
2023-04-09T12:01:56.613Z,526.00
2023-04-09T12:02:56.853Z,526.00
2023-04-09T12:03:56.740Z,529.00
2023-04-09T12:04:56.803Z,533.00
2023-04-09T12:05:56.671Z,512.00
2023-04-09T12:06:56.745Z,514.00
2023-04-09T12:07:57.709Z,507.00
2023-04-09T12:08:56.855Z,520.00
2023-04-09T12:09:56.900Z,517.00
2023-04-09T12:10:56.921Z,507.00
2023-04-09T12:11:56.989Z,506.00
2023-04-09T12:12:57.025Z,508.00
2023-04-09T12:13:57.042Z,508.00
2023-04-09T12:14:57.104Z,506.00
2023-04-09T12:15:59.036Z,511.00
2023-04-09T12:16:57.220Z,515.00
2023-04-09T12:17:57.235Z,520.00
2023-04-09T12:18:57.284Z,529.00
2023-04-09T12:19:57.335Z,518.00
2023-04-09T12:20:57.347Z,521.00
2023-04-09T12:21:57.402Z,522.00
2023-04-09T12:22:57.421Z,524.00
2023-04-09T12:23:57.475Z,523.00
2023-04-09T12:24:57.567Z,516.00
2023-04-09T12:25:57.566Z,515.00
2023-04-09T12:26:57.611Z,508.00
2023-04-09T12:27:57.623Z,506.00
2023-04-09T12:28:57.692Z,505.00
2023-04-09T12:29:57.710Z,511.00